Time;durP1;ratioP1;P1;durP2;ratioP2;P2;SDS_P1;SDS_P2;PMS_P1;PMS_P2;Temp;Humidity;BMP_temperature;BMP_pressure;BME280_temperature;BME280_humidity;BME280_pressure;Samples;Min_cycle;Max_cycle;Signal;HPM_P1;HPM_P2
2022/07/04 00:00:21;;;;;;;12.25;2.25;;;;;;;;;;5073351;28;20035;-63
2022/07/04 00:02:47;;;;;;;2.78;1.38;;;;;;;;;;5073134;28;20029;-63
2022/07/04 00:05:14;;;;;;;7.18;1.40;;;;;;;;;;5073374;28;20031;-63
2022/07/04 00:07:41;;;;;;;8.20;1.63;;;;;;;;;;5072451;28;20036;-63
2022/07/04 00:10:08;;;;;;;5.50;2.15;;;;;;;;;;5073223;28;20454;-63
2022/07/04 00:12:34;;;;;;;2.60;1.20;;;;;;;;;;5065478;28;20063;-63
2022/07/04 00:15:01;;;;;;;3.65;1.20;;;;;;;;;;5066615;28;20060;-63
2022/07/04 00:17:27;;;;;;;4.28;0.98;;;;;;;;;;5072844;28;20036;-63
2022/07/04 00:19:53;;;;;;;6.70;1.23;;;;;;;;;;5072989;28;20021;-63
2022/07/04 00:22:19;;;;;;;2.42;1.17;;;;;;;;;;5072601;28;20032;-63
2022/07/04 00:24:45;;;;;;;1.40;1.05;;;;;;;;;;5072713;28;20024;-63
2022/07/04 00:27:11;;;;;;;3.85;1.30;;;;;;;;;;5072379;28;20132;-63
2022/07/04 00:29:37;;;;;;;3.60;0.90;;;;;;;;;;5072348;28;20294;-63
2022/07/04 00:32:04;;;;;;;3.83;1.10;;;;;;;;;;5072897;28;20048;-63
2022/07/04 00:34:30;;;;;;;4.28;1.10;;;;;;;;;;5072558;28;20058;-63
2022/07/04 00:36:56;;;;;;;4.15;1.13;;;;;;;;;;5072280;28;20097;-63
2022/07/04 00:39:22;;;;;;;2.75;1.60;;;;;;;;;;5072717;28;20097;-63
2022/07/04 00:41:48;;;;;;;4.90;1.50;;;;;;;;;;5072120;28;20056;-63
2022/07/04 00:44:17;;;;;;;2.50;0.90;;;;;;;;;;5072569;28;20051;-63
2022/07/04 00:46:46;;;;;;;3.40;1.10;;;;;;;;;;5072160;28;20044;-63
2022/07/04 00:49:13;;;;;;;1.75;0.80;;;;;;;;;;5072710;28;20025;-63
2022/07/04 00:51:39;;;;;;;3.85;1.30;;;;;;;;;;5071686;28;20028;-63
2022/07/04 00:54:06;;;;;;;3.05;1.23;;;;;;;;;;5072469;28;20066;-63
2022/07/04 00:56:35;;;;;;;4.35;1.10;;;;;;;;;;5072021;28;20123;-63
2022/07/04 00:59:02;;;;;;;1.55;1.10;;;;;;;;;;5071441;28;20023;-63
2022/07/04 01:01:28;;;;;;;2.55;1.17;;;;;;;;;;5072130;28;20030;-63
2022/07/04 01:03:54;;;;;;;4.72;1.02;;;;;;;;;;5071798;28;20078;-63
2022/07/04 01:06:20;;;;;;;4.90;1.08;;;;;;;;;;5071732;28;20121;-63
2022/07/04 01:08:47;;;;;;;4.65;1.38;;;;;;;;;;5071904;28;20063;-63
2022/07/04 01:11:13;;;;;;;6.35;1.40;;;;;;;;;;5072113;28;20632;-63
2022/07/04 01:13:43;;;;;;;4.53;1.08;;;;;;;;;;5071725;28;20393;-63
2022/07/04 01:16:09;;;;;;;2.28;1.00;;;;;;;;;;5072216;28;20024;-63
2022/07/04 01:18:36;;;;;;;4.15;1.20;;;;;;;;;;5071654;28;20032;-63
2022/07/04 01:21:02;;;;;;;4.13;1.10;;;;;;;;;;5071986;28;20044;-63
2022/07/04 01:23:28;;;;;;;2.85;0.90;;;;;;;;;;5072049;28;20390;-63
2022/07/04 01:25:54;;;;;;;2.15;1.00;;;;;;;;;;5069877;28;20739;-63
2022/07/04 01:28:22;;;;;;;5.45;0.95;;;;;;;;;;5071798;28;20115;-63
2022/07/04 01:30:48;;;;;;;3.20;1.02;;;;;;;;;;5071798;28;20033;-63
2022/07/04 01:33:14;;;;;;;2.63;1.15;;;;;;;;;;5071486;28;20028;-63
2022/07/04 01:35:41;;;;;;;2.90;1.20;;;;;;;;;;5071425;28;20028;-63
2022/07/04 01:38:07;;;;;;;4.38;1.20;;;;;;;;;;5071905;28;20070;-63
2022/07/04 01:40:33;;;;;;;4.50;1.05;;;;;;;;;;5071810;28;20424;-63
2022/07/04 01:42:59;;;;;;;1.58;0.90;;;;;;;;;;5071317;28;20025;-63
2022/07/04 01:45:25;;;;;;;7.95;1.10;;;;;;;;;;5071978;28;20025;-63
2022/07/04 01:47:52;;;;;;;1.48;0.95;;;;;;;;;;5071083;28;20535;-63
2022/07/04 01:50:18;;;;;;;2.72;1.10;;;;;;;;;;5071685;28;20421;-63
2022/07/04 01:52:44;;;;;;;8.25;0.98;;;;;;;;;;5071590;28;20660;-63
2022/07/04 01:55:11;;;;;;;2.42;1.00;;;;;;;;;;5071703;28;20028;-63
2022/07/04 01:57:37;;;;;;;2.28;1.20;;;;;;;;;;5071366;28;20051;-63
2022/07/04 02:02:52;;;;;;;2.97;0.90;;;;;;;;;;5071025;28;20036;-63
2022/07/04 02:05:18;;;;;;;2.88;1.38;;;;;;;;;;5071636;28;20020;-63
2022/07/04 02:07:45;;;;;;;3.60;1.48;;;;;;;;;;5071182;28;20040;-63
2022/07/04 02:10:11;;;;;;;2.90;1.02;;;;;;;;;;5071591;28;20021;-64
2022/07/04 02:15:22;;;;;;;1.88;1.20;;;;;;;;;;5069381;28;20044;-63
2022/07/04 02:17:49;;;;;;;4.13;1.00;;;;;;;;;;5074600;28;20027;-63
2022/07/04 02:20:15;;;;;;;1.67;1.10;;;;;;;;;;5075254;28;20040;-63
2022/07/04 02:22:41;;;;;;;3.70;1.23;;;;;;;;;;5075270;28;20098;-63
2022/07/04 02:25:07;;;;;;;6.78;1.23;;;;;;;;;;5074749;28;20028;-63
2022/07/04 02:27:34;;;;;;;2.05;0.95;;;;;;;;;;5074860;28;20098;-63
2022/07/04 02:30:00;;;;;;;5.20;1.25;;;;;;;;;;5074565;28;20107;-63
2022/07/04 02:32:26;;;;;;;3.47;1.10;;;;;;;;;;5074741;28;20130;-63
2022/07/04 02:34:52;;;;;;;2.45;0.88;;;;;;;;;;5074885;28;20502;-63
2022/07/04 02:37:18;;;;;;;1.52;0.95;;;;;;;;;;5073675;28;20078;-63
2022/07/04 02:39:44;;;;;;;3.20;0.98;;;;;;;;;;5074990;28;20494;-63
2022/07/04 02:42:10;;;;;;;3.53;1.23;;;;;;;;;;5074258;28;20029;-63
2022/07/04 02:44:36;;;;;;;3.53;1.10;;;;;;;;;;5074774;28;20075;-63
2022/07/04 02:47:02;;;;;;;2.28;1.13;;;;;;;;;;5074086;28;20478;-63
2022/07/04 02:49:28;;;;;;;2.67;0.90;;;;;;;;;;5074807;28;20029;-63
2022/07/04 02:51:55;;;;;;;2.90;1.13;;;;;;;;;;5074291;28;20024;-63
2022/07/04 02:54:21;;;;;;;3.45;0.93;;;;;;;;;;5074662;28;20021;-63
2022/07/04 02:56:47;;;;;;;1.35;0.90;;;;;;;;;;5074547;28;20071;-63
2022/07/04 02:59:13;;;;;;;8.35;1.23;;;;;;;;;;5074360;28;20421;-63
2022/07/04 03:01:39;;;;;;;3.40;1.20;;;;;;;;;;5074172;28;20028;-63
2022/07/04 03:04:05;;;;;;;2.50;1.10;;;;;;;;;;5074070;28;20032;-63
2022/07/04 03:06:31;;;;;;;2.72;1.00;;;;;;;;;;5074502;28;20035;-63
2022/07/04 03:08:57;;;;;;;2.20;1.13;;;;;;;;;;5074256;28;20035;-63
2022/07/04 03:11:23;;;;;;;2.97;1.20;;;;;;;;;;5074525;28;20031;-63
2022/07/04 03:13:50;;;;;;;4.78;1.00;;;;;;;;;;5074385;28;20028;-63
2022/07/04 03:16:16;;;;;;;3.38;1.00;;;;;;;;;;5073533;28;20028;-64
2022/07/04 03:18:42;;;;;;;2.88;2.33;;;;;;;;;;5073356;28;20028;-63
2022/07/04 03:21:08;;;;;;;2.70;0.80;;;;;;;;;;5072824;28;20450;-63
2022/07/04 03:23:34;;;;;;;2.40;0.90;;;;;;;;;;5072968;28;20479;-63
2022/07/04 03:26:01;;;;;;;2.13;1.00;;;;;;;;;;5072549;28;20087;-63
2022/07/04 03:28:27;;;;;;;1.27;1.00;;;;;;;;;;5073884;28;20067;-63
2022/07/04 03:30:54;;;;;;;2.67;0.90;;;;;;;;;;5073538;28;20025;-65
2022/07/04 03:33:20;;;;;;;4.68;0.90;;;;;;;;;;5072451;28;20047;-65
2022/07/04 03:35:46;;;;;;;2.00;0.88;;;;;;;;;;5073645;28;20386;-65
2022/07/04 03:38:12;;;;;;;1.83;1.00;;;;;;;;;;5073383;28;20036;-65
2022/07/04 03:40:38;;;;;;;3.47;0.95;;;;;;;;;;5074009;28;20060;-65
2022/07/04 03:43:08;;;;;;;2.00;1.05;;;;;;;;;;5073651;28;20119;-64
2022/07/04 03:45:35;;;;;;;4.85;0.80;;;;;;;;;;5073007;28;20024;-65
2022/07/04 03:48:04;;;;;;;1.80;0.88;;;;;;;;;;5073611;28;20028;-65
2022/07/04 03:50:30;;;;;;;1.98;1.00;;;;;;;;;;5057814;28;20024;-73
2022/07/04 03:52:56;;;;;;;2.05;0.93;;;;;;;;;;5073452;28;20025;-64
2022/07/04 03:55:22;;;;;;;1.45;0.85;;;;;;;;;;5073169;28;20025;-64
2022/07/04 03:57:48;;;;;;;2.03;0.90;;;;;;;;;;5072936;28;20451;-64
2022/07/04 04:00:15;;;;;;;1.15;0.80;;;;;;;;;;5070804;28;20456;-63
2022/07/04 04:02:41;;;;;;;4.03;1.80;;;;;;;;;;5069876;28;20090;-63
2022/07/04 04:07:53;;;;;;;3.40;1.05;;;;;;;;;;5072142;28;20054;-63
2022/07/04 04:10:20;;;;;;;2.17;0.90;;;;;;;;;;5067670;28;20416;-63
2022/07/04 04:12:46;;;;;;;2.33;0.90;;;;;;;;;;5072524;28;20063;-63
2022/07/04 04:15:12;;;;;;;1.77;1.10;;;;;;;;;;5072597;28;20397;-63
2022/07/04 04:17:38;;;;;;;1.60;0.90;;;;;;;;;;5073059;28;20028;-63
2022/07/04 04:20:04;;;;;;;3.65;0.90;;;;;;;;;;5072139;28;20016;-63
2022/07/04 04:22:31;;;;;;;5.10;1.05;;;;;;;;;;5070709;28;20115;-63
2022/07/04 04:25:00;;;;;;;16.85;1.80;;;;;;;;;;5072978;28;20028;-63
2022/07/04 04:27:26;;;;;;;3.20;1.00;;;;;;;;;;5070206;28;20079;-63
2022/07/04 04:29:52;;;;;;;1.52;1.05;;;;;;;;;;5073046;28;20027;-63
2022/07/04 04:32:18;;;;;;;2.88;1.20;;;;;;;;;;5071285;28;20020;-63
2022/07/04 04:34:45;;;;;;;1.83;0.98;;;;;;;;;;5070586;28;20490;-63
2022/07/04 04:37:11;;;;;;;7.32;1.08;;;;;;;;;;5072368;28;20047;-63
2022/07/04 04:39:37;;;;;;;1.98;1.02;;;;;;;;;;5056311;28;20414;-63
2022/07/04 04:42:03;;;;;;;1.88;0.77;;;;;;;;;;5070779;28;20036;-63
2022/07/04 04:44:29;;;;;;;6.25;0.82;;;;;;;;;;5070495;28;20556;-63
2022/07/04 04:46:55;;;;;;;4.57;0.95;;;;;;;;;;5072367;28;20078;-63
2022/07/04 04:49:21;;;;;;;1.33;1.00;;;;;;;;;;5072144;28;20027;-63
2022/07/04 04:51:47;;;;;;;1.08;0.70;;;;;;;;;;5070026;28;20020;-63
2022/07/04 04:54:14;;;;;;;1.15;1.10;;;;;;;;;;5072256;28;20060;-63
2022/07/04 04:56:40;;;;;;;4.82;1.30;;;;;;;;;;5069998;28;20040;-63
2022/07/04 04:59:07;;;;;;;2.17;1.00;;;;;;;;;;5072437;28;20033;-63
2022/07/04 05:01:34;;;;;;;1.27;0.88;;;;;;;;;;5071934;28;20558;-63
2022/07/04 05:04:00;;;;;;;3.67;1.00;;;;;;;;;;5072120;28;20070;-63
2022/07/04 05:06:26;;;;;;;2.00;1.00;;;;;;;;;;5069856;28;20047;-63
2022/07/04 05:08:52;;;;;;;2.17;1.05;;;;;;;;;;5071094;28;20047;-63
2022/07/04 05:11:18;;;;;;;2.38;0.98;;;;;;;;;;5070408;28;20118;-63
2022/07/04 05:13:45;;;;;;;1.58;1.00;;;;;;;;;;5071992;28;20020;-63
2022/07/04 05:16:11;;;;;;;2.28;1.00;;;;;;;;;;5072223;28;20029;-63
2022/07/04 05:18:37;;;;;;;1.48;0.98;;;;;;;;;;5070809;28;20031;-63
2022/07/04 05:21:03;;;;;;;5.30;1.77;;;;;;;;;;5068667;28;20378;-63
2022/07/04 05:23:30;;;;;;;3.90;1.23;;;;;;;;;;5070436;28;20021;-63
2022/07/04 05:25:56;;;;;;;8.15;1.10;;;;;;;;;;5069863;28;20056;-63
2022/07/04 05:28:22;;;;;;;3.05;1.17;;;;;;;;;;5071303;28;20113;-63
2022/07/04 05:30:49;;;;;;;3.22;0.93;;;;;;;;;;5070149;28;20078;-63
2022/07/04 05:33:15;;;;;;;2.75;1.02;;;;;;;;;;5069180;28;20023;-63
2022/07/04 05:35:41;;;;;;;1.60;1.15;;;;;;;;;;5070553;28;20028;-63
2022/07/04 05:38:07;;;;;;;4.60;1.30;;;;;;;;;;5068343;28;20035;-63
2022/07/04 05:40:33;;;;;;;1.83;0.88;;;;;;;;;;5076638;28;20055;-64
2022/07/04 05:42:59;;;;;;;2.22;1.13;;;;;;;;;;5076623;28;20485;-63
2022/07/04 05:45:26;;;;;;;2.55;1.20;;;;;;;;;;5077252;28;20032;-63
2022/07/04 05:47:52;;;;;;;2.17;1.15;;;;;;;;;;5079751;28;20111;-63
2022/07/04 05:50:18;;;;;;;2.70;1.20;;;;;;;;;;5078902;28;20028;-63
2022/07/04 05:52:44;;;;;;;4.47;1.20;;;;;;;;;;5083203;28;20076;-63
2022/07/04 05:55:10;;;;;;;6.45;1.30;;;;;;;;;;5076367;28;20036;-63
2022/07/04 05:57:36;;;;;;;4.03;1.20;;;;;;;;;;5078359;28;20028;-64
2022/07/04 06:00:05;;;;;;;0.73;0.73;;;;;;;;;;5080956;28;20093;-64
2022/07/04 06:02:31;;;;;;;2.35;1.15;;;;;;;;;;5078056;28;20484;-64
2022/07/04 06:04:57;;;;;;;2.92;1.20;;;;;;;;;;5081875;28;20031;-64
2022/07/04 06:07:24;;;;;;;4.78;1.10;;;;;;;;;;5080843;28;20020;-64
2022/07/04 06:09:50;;;;;;;8.32;1.73;;;;;;;;;;5080787;28;20039;-64
2022/07/04 06:12:16;;;;;;;6.40;1.58;;;;;;;;;;5078685;28;20024;-64
2022/07/04 06:14:42;;;;;;;6.55;1.13;;;;;;;;;;5076725;28;20040;-64
2022/07/04 06:17:08;;;;;;;3.67;1.23;;;;;;;;;;5072438;28;20106;-64
2022/07/04 06:19:34;;;;;;;3.38;1.17;;;;;;;;;;5068992;28;20492;-64
2022/07/04 06:22:00;;;;;;;4.57;1.30;;;;;;;;;;5070926;28;20016;-64
2022/07/04 06:24:27;;;;;;;3.53;1.25;;;;;;;;;;5073579;28;20044;-64
2022/07/04 06:26:53;;;;;;;7.53;1.45;;;;;;;;;;5072968;28;20150;-64
2022/07/04 06:29:19;;;;;;;1.77;0.93;;;;;;;;;;5073738;28;20107;-64
2022/07/04 06:31:45;;;;;;;2.03;1.20;;;;;;;;;;5072616;28;20135;-64
2022/07/04 06:36:56;;;;;;;2.80;1.20;;;;;;;;;;5071960;28;20123;-64
2022/07/04 06:39:22;;;;;;;3.20;1.30;;;;;;;;;;5072713;28;20386;-64
2022/07/04 06:41:48;;;;;;;3.85;1.42;;;;;;;;;;5072411;28;20126;-64
2022/07/04 06:44:14;;;;;;;3.22;0.98;;;;;;;;;;5072512;28;20078;-63
2022/07/04 06:46:40;;;;;;;4.10;0.95;;;;;;;;;;5071967;28;20028;-63
2022/07/04 06:49:06;;;;;;;2.38;0.60;;;;;;;;;;5070296;28;20378;-63
2022/07/04 06:51:32;;;;;;;3.22;0.80;;;;;;;;;;5073036;28;20485;-63
2022/07/04 06:53:58;;;;;;;4.72;1.08;;;;;;;;;;5072329;28;20013;-63
2022/07/04 06:56:25;;;;;;;3.95;0.70;;;;;;;;;;5072994;28;20032;-63
2022/07/04 06:58:51;;;;;;;1.98;0.70;;;;;;;;;;5070545;28;20547;-63
2022/07/04 07:01:17;;;;;;;1.73;0.60;;;;;;;;;;5071256;28;21083;-64
2022/07/04 07:03:43;;;;;;;2.92;0.90;;;;;;;;;;5065486;28;20028;-64
2022/07/04 07:06:09;;;;;;;4.57;0.98;;;;;;;;;;5068512;28;20025;-64
2022/07/04 07:08:35;;;;;;;5.43;1.38;;;;;;;;;;5066117;28;22227;-64
2022/07/04 07:11:12;;;;;;;2.25;0.77;;;;;;;;;;5068721;28;20482;-64
2022/07/04 07:13:46;;;;;;;2.70;0.52;;;;;;;;;;5068066;28;20485;-64
2022/07/04 07:16:12;;;;;;;3.20;0.68;;;;;;;;;;5071894;28;20111;-64
2022/07/04 07:18:38;;;;;;;3.13;0.90;;;;;;;;;;5072013;28;20511;-63
2022/07/04 07:21:05;;;;;;;2.90;0.80;;;;;;;;;;5069752;28;20421;-63
2022/07/04 07:23:31;;;;;;;1.27;0.82;;;;;;;;;;5072211;28;20458;-63
2022/07/04 07:25:57;;;;;;;3.90;1.00;;;;;;;;;;5071960;28;20111;-63
2022/07/04 07:28:23;;;;;;;2.17;0.80;;;;;;;;;;5068628;28;20119;-63
2022/07/04 07:30:50;;;;;;;4.60;1.10;;;;;;;;;;5054386;28;20024;-63
2022/07/04 07:33:16;;;;;;;2.47;0.90;;;;;;;;;;5071376;28;20020;-63
2022/07/04 07:35:42;;;;;;;5.70;0.90;;;;;;;;;;5071797;28;20029;-63
2022/07/04 07:38:08;;;;;;;1.67;0.60;;;;;;;;;;5071083;28;20029;-63
2022/07/04 07:40:34;;;;;;;2.70;0.90;;;;;;;;;;5072106;28;20044;-63
2022/07/04 07:43:00;;;;;;;3.10;0.80;;;;;;;;;;5071043;28;20104;-64
2022/07/04 07:45:27;;;;;;;3.88;0.85;;;;;;;;;;5071829;28;20036;-64
2022/07/04 07:47:53;;;;;;;5.20;0.70;;;;;;;;;;5071601;28;20056;-64
2022/07/04 07:50:19;;;;;;;1.58;0.82;;;;;;;;;;5071072;28;20430;-64
2022/07/04 07:52:45;;;;;;;7.22;1.10;;;;;;;;;;5071724;28;20116;-64
2022/07/04 07:55:11;;;;;;;3.88;0.80;;;;;;;;;;5070151;28;20024;-64
2022/07/04 07:57:37;;;;;;;3.88;0.80;;;;;;;;;;5071234;28;20150;-64
2022/07/04 08:00:04;;;;;;;4.40;0.70;;;;;;;;;;5071013;28;20031;-64
2022/07/04 08:05:23;;;;;;;2.47;0.88;;;;;;;;;;5071052;28;20119;-63
2022/07/04 08:07:49;;;;;;;5.40;0.90;;;;;;;;;;5070921;28;20035;-63
2022/07/04 08:10:15;;;;;;;0.70;0.68;;;;;;;;;;5070828;28;20025;-63
2022/07/04 08:12:41;;;;;;;2.40;0.60;;;;;;;;;;5071330;28;20016;-63
2022/07/04 08:15:08;;;;;;;0.85;0.80;;;;;;;;;;5067154;28;20113;-63
2022/07/04 08:17:35;;;;;;;1.05;0.70;;;;;;;;;;5070967;28;20024;-63
2022/07/04 08:20:01;;;;;;;3.63;0.90;;;;;;;;;;5070740;28;20039;-63
2022/07/04 08:22:27;;;;;;;5.60;1.60;;;;;;;;;;5071143;28;20043;-63
2022/07/04 08:24:53;;;;;;;1.63;0.60;;;;;;;;;;5070544;28;20024;-63
2022/07/04 08:27:22;;;;;;;6.30;0.90;;;;;;;;;;5070292;28;20405;-64
2022/07/04 08:29:48;;;;;;;4.15;0.70;;;;;;;;;;5065310;28;20029;-64
2022/07/04 08:32:15;;;;;;;2.53;0.70;;;;;;;;;;5068704;28;20525;-64
2022/07/04 08:34:42;;;;;;;4.28;0.98;;;;;;;;;;5069379;28;20094;-63
2022/07/04 08:37:08;;;;;;;3.47;0.55;;;;;;;;;;5065505;28;20049;-64
2022/07/04 08:39:35;;;;;;;3.60;0.60;;;;;;;;;;5068788;28;20050;-64
2022/07/04 08:42:03;;;;;;;2.63;0.50;;;;;;;;;;5068094;28;20034;-64
2022/07/04 08:44:30;;;;;;;1.33;0.90;;;;;;;;;;5067676;28;20119;-64
2022/07/04 08:46:56;;;;;;;2.35;1.05;;;;;;;;;;5068197;28;20489;-64
2022/07/04 08:49:24;;;;;;;12.13;1.40;;;;;;;;;;5069210;28;20328;-64
2022/07/04 08:51:59;;;;;;;1.60;0.80;;;;;;;;;;5064740;28;20054;-64
2022/07/04 08:59:58;;;;;;;0.32;0.32;;;;;;;;;;5069400;28;20103;-64
2022/07/04 09:02:26;;;;;;;2.47;0.57;;;;;;;;;;5065176;28;20041;-64
2022/07/04 09:04:53;;;;;;;1.50;0.63;;;;;;;;;;5067102;28;20062;-64
2022/07/04 09:07:19;;;;;;;5.13;0.70;;;;;;;;;;5067909;28;20043;-63
2022/07/04 09:09:45;;;;;;;1.70;0.70;;;;;;;;;;5065724;28;20036;-63
2022/07/04 09:12:12;;;;;;;0.63;0.50;;;;;;;;;;5070349;28;20021;-63
2022/07/04 09:14:39;;;;;;;2.92;0.65;;;;;;;;;;5070109;28;20027;-63
2022/07/04 09:17:05;;;;;;;0.95;0.50;;;;;;;;;;5069158;28;20028;-63
2022/07/04 09:19:32;;;;;;;2.28;1.13;;;;;;;;;;5068191;28;20032;-63
2022/07/04 09:22:02;;;;;;;0.45;0.43;;;;;;;;;;5069962;28;20398;-63
2022/07/04 09:24:46;;;;;;;0.90;0.45;;;;;;;;;;5068629;28;20027;-63
2022/07/04 09:27:13;;;;;;;2.75;0.47;;;;;;;;;;5068557;28;20559;-63
2022/07/04 09:29:53;;;;;;;2.90;0.93;;;;;;;;;;5067697;28;20430;-63
2022/07/04 09:32:37;;;;;;;3.42;0.90;;;;;;;;;;5068208;28;20101;-63
2022/07/04 09:35:05;;;;;;;0.98;0.70;;;;;;;;;;5067595;28;20192;-63
2022/07/04 09:37:36;;;;;;;2.38;0.50;;;;;;;;;;5069786;28;20031;-63
2022/07/04 09:40:04;;;;;;;1.38;0.60;;;;;;;;;;5069836;28;20035;-63
2022/07/04 09:42:40;;;;;;;3.30;0.60;;;;;;;;;;5068595;28;20029;-63
2022/07/04 09:45:07;;;;;;;2.10;0.93;;;;;;;;;;5069226;28;20078;-63
2022/07/04 09:47:34;;;;;;;1.38;0.40;;;;;;;;;;5067104;28;20486;-63
2022/07/04 09:50:10;;;;;;;0.70;0.60;;;;;;;;;;5069873;28;20442;-63
2022/07/04 09:52:45;;;;;;;1.00;0.47;;;;;;;;;;5070250;28;20267;-63
2022/07/04 09:55:11;;;;;;;2.70;0.80;;;;;;;;;;5069509;28;20036;-63
2022/07/04 09:57:37;;;;;;;1.45;0.30;;;;;;;;;;5069904;28;20024;-63
2022/07/04 10:00:22;;;;;;;1.08;0.60;;;;;;;;;;5069614;28;20017;-63
2022/07/04 10:02:48;;;;;;;1.55;0.55;;;;;;;;;;5067313;28;20025;-63
2022/07/04 10:05:19;;;;;;;2.45;0.60;;;;;;;;;;5064242;28;20039;-63
2022/07/04 10:07:47;;;;;;;1.65;0.68;;;;;;;;;;5069132;28;20039;-63
2022/07/04 10:10:25;;;;;;;1.50;0.68;;;;;;;;;;5066346;28;20501;-63
2022/07/04 10:12:53;;;;;;;2.10;0.60;;;;;;;;;;5067150;28;20020;-63
2022/07/04 10:15:19;;;;;;;1.17;0.70;;;;;;;;;;5066179;28;20037;-63
2022/07/04 10:17:45;;;;;;;1.65;0.60;;;;;;;;;;5069275;28;20108;-63
2022/07/04 10:20:12;;;;;;;4.72;0.60;;;;;;;;;;5068086;28;20027;-63
2022/07/04 10:22:38;;;;;;;0.95;0.50;;;;;;;;;;5068359;28;20021;-63
2022/07/04 10:25:05;;;;;;;0.93;0.43;;;;;;;;;;5066521;28;20533;-63
2022/07/04 10:27:31;;;;;;;2.67;0.70;;;;;;;;;;5066251;28;20040;-63
2022/07/04 10:29:58;;;;;;;2.90;0.70;;;;;;;;;;5068501;28;20021;-63
2022/07/04 10:32:25;;;;;;;1.85;0.82;;;;;;;;;;5071314;28;20039;-63
2022/07/04 10:34:51;;;;;;;2.58;0.63;;;;;;;;;;5070946;28;20017;-63
2022/07/04 10:37:17;;;;;;;1.33;0.60;;;;;;;;;;5067096;28;20033;-63
2022/07/04 10:39:44;;;;;;;7.15;1.33;;;;;;;;;;5069403;28;20486;-63
2022/07/04 10:42:22;;;;;;;4.32;0.60;;;;;;;;;;5072964;28;20020;-63
2022/07/04 10:44:50;;;;;;;1.48;0.50;;;;;;;;;;5068853;28;20060;-63
2022/07/04 10:47:30;;;;;;;2.50;0.65;;;;;;;;;;5069866;28;20031;-63
2022/07/04 10:49:56;;;;;;;2.47;0.50;;;;;;;;;;5069650;28;20055;-63
2022/07/04 10:52:23;;;;;;;1.50;0.80;;;;;;;;;;5069895;28;20027;-63
2022/07/04 10:54:49;;;;;;;2.45;0.70;;;;;;;;;;5069190;28;20048;-63
2022/07/04 10:57:17;;;;;;;3.80;0.60;;;;;;;;;;5072404;28;20020;-63
2022/07/04 10:59:44;;;;;;;3.03;0.65;;;;;;;;;;5069110;28;20116;-63
2022/07/04 11:02:10;;;;;;;2.03;0.60;;;;;;;;;;5072612;28;20039;-63
2022/07/04 11:04:48;;;;;;;6.72;1.52;;;;;;;;;;5067658;28;20171;-63
2022/07/04 11:07:30;;;;;;;1.77;0.65;;;;;;;;;;5065091;28;20040;-63
2022/07/04 11:10:22;;;;;;;2.80;0.70;;;;;;;;;;5071535;28;20024;-63
2022/07/04 11:12:55;;;;;;;3.28;0.70;;;;;;;;;;5067018;28;20036;-63
2022/07/04 11:15:33;;;;;;;2.47;1.25;;;;;;;;;;5066102;28;20064;-62
2022/07/04 11:18:03;;;;;;;3.88;0.40;;;;;;;;;;5069073;28;20033;-63
2022/07/04 11:20:31;;;;;;;1.55;0.52;;;;;;;;;;5067544;28;20038;-62
2022/07/04 11:23:04;;;;;;;2.97;0.40;;;;;;;;;;5066031;28;20025;-63
2022/07/04 11:25:30;;;;;;;1.10;0.40;;;;;;;;;;5067633;28;20032;-63
2022/07/04 11:27:56;;;;;;;2.03;0.60;;;;;;;;;;5067764;28;20501;-62
2022/07/04 11:30:23;;;;;;;1.00;0.40;;;;;;;;;;5068702;28;20029;-62
2022/07/04 11:32:49;;;;;;;4.65;0.60;;;;;;;;;;5071807;28;20033;-63
2022/07/04 11:35:20;;;;;;;4.70;0.52;;;;;;;;;;5071329;28;20036;-63
2022/07/04 11:37:46;;;;;;;0.80;0.40;;;;;;;;;;5065608;28;20055;-62
2022/07/04 11:45:54;;;;;;;1.85;0.90;;;;;;;;;;5024100;28;20034;-62
2022/07/04 11:48:21;;;;;;;1.48;0.38;;;;;;;;;;5026963;28;20034;-63
2022/07/04 11:50:47;;;;;;;4.07;0.70;;;;;;;;;;5019901;28;20175;-62
2022/07/04 11:53:13;;;;;;;1.98;0.85;;;;;;;;;;5026272;28;20028;-62
2022/07/04 11:55:39;;;;;;;1.58;0.50;;;;;;;;;;5027540;28;20032;-63
2022/07/04 11:58:05;;;;;;;1.25;0.60;;;;;;;;;;5021227;28;20041;-63
2022/07/04 12:00:31;;;;;;;5.05;0.82;;;;;;;;;;5028503;28;20044;-63
2022/07/04 12:03:01;;;;;;;2.83;0.47;;;;;;;;;;5029469;28;20589;-63
2022/07/04 12:05:28;;;;;;;1.15;0.35;;;;;;;;;;5020031;28;20055;-62
2022/07/04 12:07:54;;;;;;;2.67;0.50;;;;;;;;;;5026601;28;20538;-62
2022/07/04 12:10:23;;;;;;;1.85;0.38;;;;;;;;;;5027543;28;20033;-62
2022/07/04 12:12:56;;;;;;;1.50;0.50;;;;;;;;;;5028043;28;20040;-62
2022/07/04 12:15:24;;;;;;;1.60;0.50;;;;;;;;;;5026008;28;20521;-62
2022/07/04 12:17:54;;;;;;;1.63;0.50;;;;;;;;;;5027450;28;20088;-62
2022/07/04 12:20:21;;;;;;;4.03;0.80;;;;;;;;;;5028227;28;20036;-62
2022/07/04 12:22:52;;;;;;;0.40;0.40;;;;;;;;;;5046927;28;20042;-62
2022/07/04 12:25:24;;;;;;;3.17;0.90;;;;;;;;;;5070932;28;20035;-62
2022/07/04 12:27:56;;;;;;;6.72;0.65;;;;;;;;;;5069102;28;20037;-62
2022/07/04 12:30:23;;;;;;;1.83;0.70;;;;;;;;;;5070158;28;20538;-62
2022/07/04 12:32:51;;;;;;;1.35;0.63;;;;;;;;;;5071601;28;20020;-62
2022/07/04 12:35:32;;;;;;;0.82;0.40;;;;;;;;;;5070133;28;20501;-62
2022/07/04 12:38:09;;;;;;;0.90;0.45;;;;;;;;;;5070579;28;20401;-62
2022/07/04 12:40:36;;;;;;;1.52;0.70;;;;;;;;;;5067336;28;20052;-62
2022/07/04 12:43:02;;;;;;;1.23;0.60;;;;;;;;;;5071294;28;20024;-62
2022/07/04 12:45:43;;;;;;;1.42;0.98;;;;;;;;;;5070313;28;20032;-62
2022/07/04 12:48:20;;;;;;;2.15;0.60;;;;;;;;;;5068728;28;20028;-63
2022/07/04 12:50:46;;;;;;;0.95;0.68;;;;;;;;;;5065505;28;20024;-62
2022/07/04 12:53:13;;;;;;;3.55;0.80;;;;;;;;;;5070669;28;20404;-62
2022/07/04 12:55:41;;;;;;;3.47;0.70;;;;;;;;;;5067993;28;20453;-62
2022/07/04 12:58:07;;;;;;;0.90;0.50;;;;;;;;;;5068433;28;20104;-62
2022/07/04 13:00:33;;;;;;;0.80;0.43;;;;;;;;;;5068146;28;20054;-62
2022/07/04 13:02:59;;;;;;;1.15;0.38;;;;;;;;;;5070471;28;20032;-62
2022/07/04 13:05:25;;;;;;;2.97;0.40;;;;;;;;;;5066057;28;20032;-62
2022/07/04 13:07:52;;;;;;;2.38;0.73;;;;;;;;;;5070538;28;20466;-62
2022/07/04 13:10:18;;;;;;;4.43;0.60;;;;;;;;;;5067093;28;20028;-62
2022/07/04 13:12:44;;;;;;;2.22;0.70;;;;;;;;;;5070805;28;20456;-62
2022/07/04 13:15:11;;;;;;;1.08;0.50;;;;;;;;;;5067885;28;20048;-62
2022/07/04 13:17:37;;;;;;;0.43;0.40;;;;;;;;;;5065690;28;20024;-63
2022/07/04 13:20:04;;;;;;;1.20;0.60;;;;;;;;;;5067898;28;20032;-63
2022/07/04 13:22:30;;;;;;;0.65;0.32;;;;;;;;;;5066307;28;20028;-63
2022/07/04 13:24:57;;;;;;;3.95;0.52;;;;;;;;;;5069987;28;20111;-63
2022/07/04 13:27:23;;;;;;;2.47;0.65;;;;;;;;;;5069388;28;20049;-63
2022/07/04 13:29:49;;;;;;;1.40;0.30;;;;;;;;;;5067522;28;20036;-62
2022/07/04 13:32:15;;;;;;;2.80;0.40;;;;;;;;;;5068493;28;20383;-63
2022/07/04 13:34:41;;;;;;;1.08;0.50;;;;;;;;;;5068865;28;20019;-63
2022/07/04 13:37:07;;;;;;;3.10;0.60;;;;;;;;;;5068712;28;20032;-62
2022/07/04 13:39:34;;;;;;;2.47;0.40;;;;;;;;;;5067885;28;20529;-62
2022/07/04 13:42:01;;;;;;;1.23;0.47;;;;;;;;;;5067471;28;20043;-62
2022/07/04 13:44:27;;;;;;;0.88;0.40;;;;;;;;;;5069954;28;20032;-62
2022/07/04 13:46:53;;;;;;;2.97;0.50;;;;;;;;;;5067151;28;20025;-62
2022/07/04 13:49:20;;;;;;;2.90;0.45;;;;;;;;;;5069960;28;20031;-62
2022/07/04 13:51:46;;;;;;;2.33;0.65;;;;;;;;;;5066049;28;20836;-62
2022/07/04 13:54:12;;;;;;;2.90;0.47;;;;;;;;;;5068842;28;20020;-62
2022/07/04 13:56:39;;;;;;;1.92;0.40;;;;;;;;;;5066733;28;20032;-62
2022/07/04 13:59:05;;;;;;;2.25;0.47;;;;;;;;;;5070146;28;20021;-62
2022/07/04 14:01:31;;;;;;;0.60;0.40;;;;;;;;;;5068202;28;20027;-62
2022/07/04 14:03:58;;;;;;;2.53;0.43;;;;;;;;;;5069841;28;20028;-62
2022/07/04 14:06:24;;;;;;;3.33;0.57;;;;;;;;;;5066423;28;20060;-62
2022/07/04 14:08:50;;;;;;;3.30;0.80;;;;;;;;;;5072205;28;20372;-62
2022/07/04 14:11:16;;;;;;;1.80;0.40;;;;;;;;;;5072585;28;20021;-62
2022/07/04 14:13:42;;;;;;;2.35;0.60;;;;;;;;;;5073832;28;20027;-62
2022/07/04 14:16:08;;;;;;;2.33;0.50;;;;;;;;;;5073342;28;20393;-62
2022/07/04 14:18:35;;;;;;;3.78;0.57;;;;;;;;;;5071592;28;20195;-62
2022/07/04 14:21:01;;;;;;;1.00;0.70;;;;;;;;;;5072822;28;20013;-62
2022/07/04 14:23:44;;;;;;;1.33;0.77;;;;;;;;;;5073363;28;20390;-62
2022/07/04 14:26:10;;;;;;;;;;;;;;;;;;5073559;28;20028;-63
2022/07/04 14:28:37;;;;;;;2.65;0.45;;;;;;;;;;5071648;28;20388;-62
2022/07/04 14:31:03;;;;;;;1.60;0.70;;;;;;;;;;5070671;28;20157;-62
2022/07/04 14:33:29;;;;;;;2.72;0.50;;;;;;;;;;5072998;28;20032;-62
2022/07/04 14:35:56;;;;;;;5.13;0.80;;;;;;;;;;5072993;28;20541;-62
2022/07/04 14:38:22;;;;;;;3.30;0.52;;;;;;;;;;5072688;28;20017;-63
2022/07/04 14:40:49;;;;;;;2.90;0.50;;;;;;;;;;5072722;28;20028;-62
2022/07/04 14:43:19;;;;;;;2.00;0.52;;;;;;;;;;5073662;28;20474;-62
2022/07/04 14:45:46;;;;;;;0.60;0.55;;;;;;;;;;5073073;28;20126;-62
2022/07/04 14:48:13;;;;;;;4.25;0.52;;;;;;;;;;5066408;28;20392;-62
2022/07/04 14:50:39;;;;;;;2.88;0.70;;;;;;;;;;5071021;28;20024;-62
2022/07/04 14:53:05;;;;;;;1.30;0.50;;;;;;;;;;5069649;28;20397;-62
2022/07/04 14:55:31;;;;;;;2.30;0.70;;;;;;;;;;5068528;28;20032;-62
2022/07/04 14:57:57;;;;;;;2.20;0.80;;;;;;;;;;5069799;28;20036;-62
2022/07/04 15:00:24;;;;;;;1.92;0.50;;;;;;;;;;5070105;28;20054;-62
2022/07/04 15:02:50;;;;;;;1.55;0.43;;;;;;;;;;5069244;28;20036;-62
2022/07/04 15:05:16;;;;;;;2.13;0.70;;;;;;;;;;5069809;28;20501;-63
2022/07/04 15:07:43;;;;;;;0.80;0.50;;;;;;;;;;5071538;28;20028;-63